Погода Колинасна неделю

Мараньян, Бразилия

24 - 30 июля
  • 24июля
    Сегодня
    +22°
    +34°
    Ясно и безоблачно
    ВремяПогодаТемператураВлажностьДавлениеВетер, м/сВероятность осадков
    00:00Ясно и безоблачно+25°C45 %747 мм3.1 м/с5 %
    03:00Ясно и безоблачно+25°C47 %746 мм3.6 м/с5 %
    06:00Практически безоблачно+24°C54 %746 мм3.4 м/с5 %
    09:00Небольшая облачность+28°C49 %748 мм3.9 м/с5 %
    12:00Практически безоблачно+31°C36 %748 мм4.0 м/с5 %
    15:00Ясно и безоблачно+33°C32 %746 мм3.2 м/с5 %
    18:00Ясно и безоблачно+29°C42 %746 мм2.0 м/с5 %
    21:00Ясно и безоблачно+25°C53 %747 мм2.1 м/с5 %
  • 25июля
    Четверг
    +22°
    +34°
    Ясно и безоблачно
    ВремяПогодаТемператураВлажностьДавлениеВетер, м/сВероятность осадков
    00:00Ясно и безоблачно+24°C49 %748 мм3.3 м/с5 %
    03:00Ясно и безоблачно+23°C53 %746 мм3.8 м/с5 %
    06:00Ясно и безоблачно+22°C62 %747 мм3.4 м/с5 %
    09:00Ясно и безоблачно+27°C53 %748 мм4.3 м/с5 %
    12:00Ясно и безоблачно+31°C33 %747 мм4.2 м/с5 %
    15:00Ясно и безоблачно+33°C29 %744 мм3.7 м/с5 %
    18:00Ясно и безоблачно+28°C44 %745 мм2.0 м/с5 %
    21:00Ясно и безоблачно+25°C49 %746 мм3.0 м/с5 %
  • 26июля
    Пятница
    +21°
    +34°
    Облачно с прояснениями
    ВремяПогодаТемператураВлажностьДавлениеВетер, м/сВероятность осадков
    00:00Ясно и безоблачно+24°C53 %746 мм2.3 м/с5 %
    03:00Ясно и безоблачно+23°C52 %745 мм3.5 м/с5 %
    06:00Ясно и безоблачно+22°C53 %745 мм3.9 м/с5 %
    09:00Ясно и безоблачно+28°C50 %747 мм4.3 м/с5 %
    12:00Ясно и безоблачно+31°C32 %746 мм3.9 м/с5 %
    15:00Облачно с прояснениями+33°C29 %743 мм2.9 м/с5 %
    18:00Ясно и безоблачно+29°C41 %744 мм1.8 м/с5 %
    21:00Ясно и безоблачно+25°C50 %745 мм2.0 м/с5 %
  • 27июля
    Суббота
    +23°
    +35°
    Облачно с прояснениями
    ВремяПогодаТемператураВлажностьДавлениеВетер, м/сВероятность осадков
    00:00Ясно и безоблачно+22°C52 %745 мм1.9 м/с5 %
    03:00Ясно и безоблачно+23°C46 %745 мм3.3 м/с5 %
    06:00Ясно и безоблачно+23°C54 %746 мм2.7 м/с5 %
    09:00Ясно и безоблачно+28°C46 %747 мм4.0 м/с5 %
    12:00Облачно с прояснениями+31°C34 %746 мм4.3 м/с5 %
    15:00Облачно с прояснениями+34°C28 %744 мм3.5 м/с5 %
    18:00Облачно с прояснениями+30°C36 %745 мм2.5 м/с5 %
    21:00Облачно с прояснениями+26°C41 %746 мм2.7 м/с3 %
  • 28июля
    Воскресенье
    +24°
    +36°
    Практически безоблачно
    ВремяПогодаТемператураВлажностьДавлениеВетер, м/сВероятность осадков
    00:00Ясно и безоблачно+25°C40 %746 мм3.1 м/с5 %
    03:00Ясно и безоблачно+25°C40 %745 мм2.6 м/с5 %
    06:00Ясно и безоблачно+24°C45 %746 мм2.6 м/с6 %
    09:00Ясно и безоблачно+29°C41 %748 мм3.8 м/с6 %
    12:00Ясно и безоблачно+33°C36 %746 мм3.9 м/с3 %
    15:00Практически безоблачно+35°C30 %745 мм3.7 м/с5 %
    18:00Практически безоблачно+32°C36 %745 мм2.5 м/с5 %
    21:00Облачно с прояснениями+29°C45 %746 мм2.4 м/с5 %
Мы используем cookies
Соглашаюсь